Time;durP1;ratioP1;P1;durP2;ratioP2;P2;SDS_P1;SDS_P2;PMS_P1;PMS_P2;Temp;Humidity;BMP_temperature;BMP_pressure;BME280_temperature;BME280_humidity;BME280_pressure;Samples;Min_cycle;Max_cycle;Signal;HPM_P1;HPM_P2
2023/06/20 00:00:48;;;;;;;7.63;2.00;;;;;;;18.40;57.26;99607.41;4990659;28;20049;-49
2023/06/20 00:03:16;;;;;;;4.13;1.63;;;;;;;18.39;57.36;99603.09;4990535;28;20688;-48
2023/06/20 00:05:43;;;;;;;4.97;2.03;;;;;;;18.34;56.99;99605.06;4993920;28;20166;-48
2023/06/20 00:08:10;;;;;;;4.78;1.73;;;;;;;18.33;57.84;99592.88;4993493;28;20062;-47
2023/06/20 00:10:37;;;;;;;6.97;1.83;;;;;;;18.32;58.00;99602.53;4991043;28;20713;-46
2023/06/20 00:13:04;;;;;;;3.03;1.60;;;;;;;18.31;58.16;99589.47;4990152;28;20064;-50
2023/06/20 00:15:31;;;;;;;6.03;2.40;;;;;;;18.29;58.15;99586.06;4995550;28;20046;-48
2023/06/20 00:18:00;;;;;;;4.72;1.70;;;;;;;18.28;57.40;99579.97;4999758;28;20052;-49
2023/06/20 00:20:28;;;;;;;5.38;2.03;;;;;;;18.26;57.74;99573.94;4988853;28;20161;-53
2023/06/20 00:22:54;;;;;;;3.28;1.52;;;;;;;18.23;58.07;99577.53;4996327;28;20053;-45
2023/06/20 00:25:22;;;;;;;5.47;2.05;;;;;;;18.23;58.50;99582.78;4998128;28;20058;-51
2023/06/20 00:27:49;;;;;;;5.32;2.28;;;;;;;18.22;58.02;99578.47;4993611;28;20046;-46
2023/06/20 00:30:16;;;;;;;7.45;2.40;;;;;;;18.22;58.34;99581.09;4991736;28;20549;-48
2023/06/20 00:32:42;;;;;;;6.13;2.30;;;;;;;18.21;58.24;99586.41;4995055;28;20046;-48
2023/06/20 00:35:09;;;;;;;6.75;2.35;;;;;;;18.21;58.12;99584.59;4995173;28;20054;-49
2023/06/20 00:37:38;;;;;;;5.57;1.95;;;;;;;18.19;58.01;99581.22;5000617;28;20053;-46
2023/06/20 00:40:07;;;;;;;5.32;1.83;;;;;;;18.18;58.18;99583.91;4997800;28;20148;-47
2023/06/20 00:42:34;;;;;;;6.47;2.35;;;;;;;18.17;58.82;99575.16;5001946;28;20061;-49
2023/06/20 00:45:01;;;;;;;10.35;2.22;;;;;;;18.17;58.97;99567.31;4998112;28;20058;-45
2023/06/20 00:47:28;;;;;;;7.47;2.10;;;;;;;18.17;58.47;99572.53;5003846;28;20049;-50
2023/06/20 00:49:56;;;;;;;6.88;1.80;;;;;;;18.14;59.27;99564.84;5006470;28;20053;-48
2023/06/20 00:52:24;;;;;;;3.15;1.42;;;;;;;18.14;58.49;99567.47;4997375;28;20050;-49
2023/06/20 00:54:51;;;;;;;6.82;2.20;;;;;;;18.13;59.37;99562.28;5002621;28;20046;-51
2023/06/20 00:57:19;;;;;;;4.82;1.60;;;;;;;18.12;58.72;99564.03;4998673;28;20050;-49
2023/06/20 00:59:48;;;;;;;5.25;2.42;;;;;;;18.10;59.32;99560.63;5001011;28;20042;-49
2023/06/20 01:02:15;;;;;;;5.97;2.08;;;;;;;18.09;58.99;99566.78;4998979;28;20417;-47
2023/06/20 01:04:45;;;;;;;6.70;1.95;;;;;;;18.05;59.42;99563.41;5004004;28;20060;-51
2023/06/20 01:07:24;;;;;;;5.43;2.00;;;;;;;18.03;58.75;99559.16;5004902;28;20046;-47
2023/06/20 01:10:03;;;;;;;6.05;2.65;;;;;;;17.98;58.86;99557.59;4992541;28;20061;-48
2023/06/20 01:12:39;;;;;;;5.20;1.83;;;;;;;17.96;59.35;99553.31;4992136;28;20050;-50
2023/06/20 01:15:21;;;;;;;4.88;1.70;;;;;;;17.89;58.94;99559.69;4990871;28;20058;-48
2023/06/20 01:18:17;;;;;;;5.43;1.90;;;;;;;17.80;59.28;99547.88;4998939;28;20054;-47
2023/06/20 01:20:50;;;;;;;5.03;2.35;;;;;;;17.82;59.88;99540.78;4993240;28;20061;-49
2023/06/20 01:23:38;;;;;;;8.07;2.70;;;;;;;17.73;59.65;99542.00;4997523;28;20058;-52
2023/06/20 01:26:11;;;;;;;5.57;2.28;;;;;;;17.76;59.77;99541.03;4990442;28;20583;-51
2023/06/20 01:31:17;;;;;;;3.78;2.10;;;;;;;17.72;60.22;99525.44;5089213;27;20417;-46
2023/06/20 01:33:51;;;;;;;4.90;1.92;;;;;;;17.69;59.48;99525.56;5074539;28;20052;-45
2023/06/20 01:36:21;;;;;;;4.28;2.05;;;;;;;17.67;59.93;99516.91;5073586;28;20040;-47
2023/06/20 01:38:50;;;;;;;;;;;;;;;17.44;59.98;99521.34;5075639;28;20048;-47
2023/06/20 01:41:21;;;;;;;4.93;2.33;;;;;;;17.59;60.00;99519.00;5094184;28;19927;-46
2023/06/20 01:43:50;;;;;;;4.85;1.75;;;;;;;17.58;59.76;99522.53;5079602;28;20502;-46
2023/06/20 01:46:19;;;;;;;7.63;2.22;;;;;;;17.56;60.21;99525.22;5075353;28;20049;-46
2023/06/20 01:48:48;;;;;;;6.78;2.58;;;;;;;17.55;60.23;99517.41;5082773;28;20128;-46
2023/06/20 01:51:17;;;;;;;5.63;3.17;;;;;;;17.53;59.84;99519.25;5082851;28;20472;-45
2023/06/20 01:53:46;;;;;;;6.28;2.15;;;;;;;17.51;60.50;99510.59;5080443;28;20040;-50
2023/06/20 01:56:14;;;;;;;4.60;2.03;;;;;;;17.50;60.98;99508.91;5079611;28;20491;-47
2023/06/20 01:58:42;;;;;;;5.53;2.28;;;;;;;17.47;60.67;99504.66;5078674;28;20052;-47
2023/06/20 02:01:11;;;;;;;6.38;2.63;;;;;;;17.44;60.45;99505.63;5082635;28;20547;-47
2023/06/20 02:03:41;;;;;;;6.90;2.95;;;;;;;17.42;60.78;99512.69;5083057;28;20051;-47
2023/06/20 02:06:10;;;;;;;6.88;3.90;;;;;;;17.38;60.86;99511.09;5082451;28;20698;-47
2023/06/20 02:08:38;;;;;;;7.30;1.95;;;;;;;17.37;60.64;99509.41;5082672;28;20109;-49
2023/06/20 02:11:07;;;;;;;5.15;2.30;;;;;;;17.35;60.39;99516.44;5079576;28;20048;-50
2023/06/20 02:13:35;;;;;;;8.63;2.95;;;;;;;17.32;60.60;99511.31;5079220;28;20139;-49
2023/06/20 02:16:08;;;;;;;4.72;2.53;;;;;;;17.28;60.72;99515.84;5074874;28;20040;-46
2023/06/20 02:18:35;;;;;;;7.07;2.47;;;;;;;17.21;61.21;99510.00;5078518;28;20074;-45
2023/06/20 02:21:09;;;;;;;6.65;2.53;;;;;;;17.18;61.31;99499.66;5082333;28;20437;-46
2023/06/20 02:23:38;;;;;;;4.53;2.70;;;;;;;17.14;60.97;99492.84;5082366;28;20048;-48
2023/06/20 02:26:08;;;;;;;6.20;2.80;;;;;;;17.11;61.44;99498.19;5081281;28;20053;-48
2023/06/20 02:28:40;;;;;;;5.63;2.25;;;;;;;17.07;61.34;99501.84;5078211;28;20067;-46
2023/06/20 02:31:10;;;;;;;5.97;2.92;;;;;;;17.05;62.11;99503.59;5076377;28;20054;-47
2023/06/20 02:33:38;;;;;;;7.47;3.03;;;;;;;17.02;61.98;99508.97;5073373;28;20043;-48
2023/06/20 02:36:07;;;;;;;9.60;2.30;;;;;;;17.00;61.37;99508.19;5078582;28;20437;-46
2023/06/20 02:38:34;;;;;;;7.47;3.05;;;;;;;16.98;62.26;99508.22;5071755;28;20044;-46
2023/06/20 02:41:01;;;;;;;6.65;2.55;;;;;;;16.98;61.70;99502.16;5066883;28;20053;-48
2023/06/20 02:43:28;;;;;;;4.63;2.55;;;;;;;16.95;61.68;99501.34;5065657;28;20052;-48
2023/06/20 02:46:04;;;;;;;6.65;2.05;;;;;;;16.94;61.87;99502.28;5063728;28;20127;-45
2023/06/20 02:48:42;;;;;;;5.13;2.38;;;;;;;16.92;61.93;99498.84;5065889;28;20503;-46
2023/06/20 02:51:18;;;;;;;5.85;2.28;;;;;;;16.91;61.95;99485.84;5066184;28;20543;-42
2023/06/20 02:53:57;;;;;;;5.78;2.65;;;;;;;16.90;62.14;99485.00;5070301;28;20044;-49
2023/06/20 02:56:29;;;;;;;8.80;3.90;;;;;;;16.92;62.18;99488.38;5066835;28;20626;-51
2023/06/20 02:58:57;;;;;;;8.07;2.78;;;;;;;16.91;61.89;99486.69;5065902;28;20048;-48
2023/06/20 03:01:25;;;;;;;5.95;2.25;;;;;;;16.91;62.19;99491.94;5065827;28;20051;-47
2023/06/20 03:03:55;;;;;;;5.32;2.40;;;;;;;16.90;61.54;99485.00;5064042;28;20075;-51
2023/06/20 03:06:27;;;;;;;6.30;2.33;;;;;;;16.89;62.43;99493.72;5063639;28;20131;-51
2023/06/20 03:08:58;;;;;;;7.63;3.53;;;;;;;16.88;62.16;99492.03;5063129;28;20405;-47
2023/06/20 03:11:25;;;;;;;5.82;2.38;;;;;;;16.87;61.89;99485.09;5062869;28;20044;-49
2023/06/20 03:13:52;;;;;;;6.47;2.08;;;;;;;16.85;62.23;99481.69;5064097;28;20072;-49
2023/06/20 03:16:19;;;;;;;5.60;2.17;;;;;;;16.84;61.82;99485.22;5061369;28;20458;-46
2023/06/20 03:18:47;;;;;;;4.93;2.05;;;;;;;16.81;62.16;99474.88;5060530;28;20045;-48
2023/06/20 03:21:14;;;;;;;8.35;2.63;;;;;;;16.79;62.45;99476.72;5061760;28;20056;-49
2023/06/20 03:23:54;;;;;;;5.78;2.47;;;;;;;16.77;63.10;99476.75;5061185;28;20061;-51
2023/06/20 03:26:21;;;;;;;7.72;2.45;;;;;;;16.76;62.81;99482.03;5062993;28;20047;-48
2023/06/20 03:28:48;;;;;;;6.40;2.40;;;;;;;16.77;62.81;99481.13;5060490;28;20216;-47
2023/06/20 03:31:15;;;;;;;5.57;2.67;;;;;;;16.77;63.26;99481.13;5061646;28;20135;-50
2023/06/20 03:33:42;;;;;;;6.78;2.47;;;;;;;16.78;62.53;99469.75;5059339;28;20041;-49
2023/06/20 03:36:09;;;;;;;4.25;2.03;;;;;;;16.79;62.79;99474.94;5059475;28;20060;-48
2023/06/20 03:38:39;;;;;;;6.50;2.45;;;;;;;16.79;62.74;99479.31;5067167;28;20056;-51
2023/06/20 03:41:05;;;;;;;3.75;2.28;;;;;;;16.79;63.33;99476.72;5061945;28;20496;-50
2023/06/20 03:43:33;;;;;;;7.65;3.50;;;;;;;16.79;63.21;99471.47;5062352;28;20127;-50
2023/06/20 03:46:00;;;;;;;5.43;2.30;;;;;;;16.78;63.33;99467.13;5061430;28;20052;-51
2023/06/20 03:48:27;;;;;;;6.70;2.50;;;;;;;16.77;63.25;99457.59;5062743;28;20056;-48
2023/06/20 03:50:54;;;;;;;8.48;2.75;;;;;;;16.76;63.09;99458.50;5061943;28;20041;-48
2023/06/20 03:53:21;;;;;;;7.63;3.60;;;;;;;16.76;63.57;99455.91;5063579;28;20412;-48
2023/06/20 03:55:48;;;;;;;7.30;2.83;;;;;;;16.75;63.73;99454.19;5063646;28;20047;-49
2023/06/20 03:58:14;;;;;;;7.03;2.50;;;;;;;16.74;63.45;99452.47;5056596;28;20492;-48
2023/06/20 04:00:41;;;;;;;5.38;2.47;;;;;;;16.74;64.06;99457.69;5065534;28;20574;-47
2023/06/20 04:03:08;;;;;;;4.65;1.92;;;;;;;16.70;63.40;99462.22;5065226;28;20517;-50
2023/06/20 04:05:36;;;;;;;4.82;2.38;;;;;;;16.62;64.08;99464.25;5064699;28;20048;-47
2023/06/20 04:08:03;;;;;;;6.38;2.28;;;;;;;16.54;63.40;99456.69;5062251;28;20040;-46
2023/06/20 04:10:30;;;;;;;6.45;2.35;;;;;;;16.47;64.03;99450.84;5062020;28;20059;-49
2023/06/20 04:12:56;;;;;;;5.68;2.25;;;;;;;16.47;64.03;99444.75;5057364;28;20048;-46
2023/06/20 04:15:23;;;;;;;5.72;1.88;;;;;;;16.48;64.25;99442.09;5061075;28;20066;-51
2023/06/20 04:17:51;;;;;;;4.93;2.05;;;;;;;16.49;63.56;99432.50;5059346;28;20127;-46
2023/06/20 04:20:18;;;;;;;6.38;2.38;;;;;;;16.52;64.37;99433.22;5061217;28;20042;-49
2023/06/20 04:22:45;;;;;;;5.95;2.42;;;;;;;16.57;64.74;99422.59;5058637;28;20072;-49
2023/06/20 04:25:14;;;;;;;7.45;2.85;;;;;;;16.60;64.75;99419.88;5063885;28;20045;-50
2023/06/20 04:27:41;;;;;;;7.95;2.42;;;;;;;16.62;64.58;99423.25;5061708;28;20052;-52
2023/06/20 04:30:08;;;;;;;4.90;2.67;;;;;;;16.62;64.24;99428.50;5059909;28;20051;-51
2023/06/20 04:32:36;;;;;;;4.88;2.53;;;;;;;16.64;64.16;99431.91;5055705;28;20055;-48
2023/06/20 04:35:04;;;;;;;8.05;2.78;;;;;;;16.67;64.00;99434.41;5058361;28;20588;-48
2023/06/20 04:37:31;;;;;;;5.85;2.33;;;;;;;16.68;64.14;99438.72;5055970;28;20052;-47
2023/06/20 04:39:57;;;;;;;8.25;2.90;;;;;;;16.70;64.09;99431.69;5052636;28;20177;-48
2023/06/20 04:42:24;;;;;;;6.10;2.95;;;;;;;16.74;64.54;99411.50;5058782;28;20059;-45
2023/06/20 04:44:51;;;;;;;6.72;3.17;;;;;;;16.78;64.34;99414.84;5061822;28;20040;-49
2023/06/20 04:47:17;;;;;;;5.40;2.15;;;;;;;16.81;63.74;99417.34;5065950;28;20095;-47
2023/06/20 04:49:44;;;;;;;5.28;2.88;;;;;;;16.81;64.74;99412.09;5066160;28;20040;-46
2023/06/20 04:52:11;;;;;;;7.03;3.00;;;;;;;16.83;64.57;99410.28;5064802;28;20052;-44
2023/06/20 04:54:37;;;;;;;8.45;2.47;;;;;;;16.83;64.25;99410.28;5069358;28;20072;-46
2023/06/20 04:57:04;;;;;;;5.82;2.58;;;;;;;16.86;64.78;99410.19;5065022;28;20060;-47
2023/06/20 04:59:31;;;;;;;5.53;2.47;;;;;;;16.87;64.43;99409.25;5065913;28;20307;-50
2023/06/20 05:01:58;;;;;;;8.20;2.90;;;;;;;16.89;64.74;99414.44;5058906;28;20050;-51
2023/06/20 05:04:25;;;;;;;6.10;2.60;;;;;;;16.89;64.81;99423.13;5062696;28;20048;-51
2023/06/20 05:06:51;;;;;;;6.85;2.83;;;;;;;16.90;64.51;99422.22;5056841;28;20052;-48
2023/06/20 05:09:18;;;;;;;8.05;3.03;;;;;;;16.91;64.80;99429.16;5065523;28;20127;-50
2023/06/20 05:11:45;;;;;;;6.90;2.42;;;;;;;16.91;64.66;99428.28;5060795;28;20036;-50
2023/06/20 05:14:12;;;;;;;6.63;2.33;;;;;;;16.89;64.57;99417.88;5057821;28;20102;-46
2023/06/20 05:16:39;;;;;;;8.13;2.40;;;;;;;16.90;64.72;99417.00;5063796;28;20339;-47
2023/06/20 05:19:05;;;;;;;6.22;2.72;;;;;;;16.91;64.22;99417.81;5062531;28;20075;-49
2023/06/20 05:21:32;;;;;;;5.70;2.45;;;;;;;16.92;65.02;99417.78;5063779;28;20053;-46
2023/06/20 05:23:59;;;;;;;5.30;2.47;;;;;;;16.92;64.96;99412.53;5066841;28;22238;-52
2023/06/20 05:26:26;;;;;;;7.35;2.65;;;;;;;16.93;64.31;99401.16;5061648;28;20044;-48
2023/06/20 05:28:53;;;;;;;8.07;2.80;;;;;;;16.94;64.91;99397.66;5059365;28;20122;-49
2023/06/20 05:31:19;;;;;;;7.65;2.65;;;;;;;16.94;64.76;99397.66;5055559;28;20051;-53
2023/06/20 05:33:47;;;;;;;7.38;3.38;;;;;;;16.94;65.31;99392.41;5056888;28;20098;-47
2023/06/20 05:36:13;;;;;;;7.18;2.88;;;;;;;16.95;65.60;99401.09;5062984;28;20044;-51
2023/06/20 05:38:40;;;;;;;6.45;2.53;;;;;;;16.94;65.31;99400.28;5058417;28;20499;-48
2023/06/20 05:41:07;;;;;;;7.82;2.97;;;;;;;16.93;65.47;99395.94;5056519;28;20574;-48
2023/06/20 05:43:34;;;;;;;8.48;2.40;;;;;;;16.90;65.22;99387.38;5053109;28;20087;-46
2023/06/20 05:46:00;;;;;;;10.43;3.03;;;;;;;16.89;65.23;99386.50;5058236;28;20045;-48
2023/06/20 05:48:27;;;;;;;7.13;3.17;;;;;;;16.87;66.39;99375.25;5057304;28;20041;-51
2023/06/20 05:50:53;;;;;;;8.73;2.88;;;;;;;16.86;65.50;99378.81;5050350;28;20068;-46
2023/06/20 05:53:20;;;;;;;6.65;2.83;;;;;;;16.85;66.40;99377.06;5056361;28;20044;-49
2023/06/20 05:55:50;;;;;;;9.07;3.03;;;;;;;16.84;66.47;99380.59;5060303;28;20051;-51
2023/06/20 05:58:18;;;;;;;6.43;3.05;;;;;;;16.83;66.84;99384.16;5058494;28;20059;-47
2023/06/20 06:00:45;;;;;;;10.55;3.65;;;;;;;16.80;67.06;99374.66;5061362;28;20044;-49
2023/06/20 06:03:13;;;;;;;6.63;3.40;;;;;;;16.80;67.06;99376.41;5054399;28;20049;-52
2023/06/20 06:05:40;;;;;;;7.03;2.78;;;;;;;16.77;66.99;99374.78;5060052;28;20118;-51
2023/06/20 06:08:07;;;;;;;8.38;2.92;;;;;;;16.76;66.54;99377.44;5059125;28;20079;-50
2023/06/20 06:10:34;;;;;;;6.95;3.05;;;;;;;16.76;66.60;99378.31;5059168;28;20044;-48
2023/06/20 06:13:01;;;;;;;8.43;3.05;;;;;;;16.76;67.23;99377.44;5056799;28;20053;-52
2023/06/20 06:15:27;;;;;;;7.03;2.70;;;;;;;16.79;66.63;99382.56;5054437;28;20119;-51
2023/06/20 06:17:54;;;;;;;7.35;2.97;;;;;;;16.78;67.48;99380.84;5062130;28;20060;-52
2023/06/20 06:20:23;;;;;;;8.98;4.18;;;;;;;16.80;66.82;99382.50;5059014;28;20475;-51
2023/06/20 06:22:51;;;;;;;;;;;;;;;16.66;67.95;99379.56;5059290;28;20087;-47
2023/06/20 06:25:18;;;;;;;6.85;3.03;;;;;;;16.80;66.88;99381.66;5065129;28;20054;-49
2023/06/20 06:27:44;;;;;;;7.05;3.25;;;;;;;16.83;67.29;99389.38;5061285;28;20052;-50
2023/06/20 06:30:11;;;;;;;12.23;2.75;;;;;;;16.87;66.89;99395.31;5063580;28;20454;-52
2023/06/20 06:32:38;;;;;;;6.82;3.53;;;;;;;16.88;66.65;99382.19;5062727;28;20468;-53
2023/06/20 06:35:07;;;;;;;10.27;3.65;;;;;;;16.89;67.58;99377.81;5054216;28;20099;-51
2023/06/20 06:37:34;;;;;;;8.57;3.40;;;;;;;16.90;67.43;99369.91;5061998;28;20040;-50
2023/06/20 06:40:04;;;;;;;8.82;3.60;;;;;;;16.89;67.10;99352.50;5060316;28;20048;-52
2023/06/20 06:42:31;;;;;;;8.68;3.35;;;;;;;16.88;68.06;99348.19;5061421;28;20429;-53
2023/06/20 06:44:59;;;;;;;7.63;3.63;;;;;;;16.88;67.44;99350.81;5059673;28;20056;-51
2023/06/20 06:47:25;;;;;;;8.38;3.33;;;;;;;16.86;67.89;99352.66;5057184;28;20048;-53
2023/06/20 06:49:52;;;;;;;11.13;3.47;;;;;;;16.85;68.36;99350.91;5056371;28;20123;-49
2023/06/20 06:52:19;;;;;;;10.50;4.18;;;;;;;16.86;67.72;99336.97;5058577;28;20535;-53
2023/06/20 06:54:45;;;;;;;12.52;3.28;;;;;;;16.84;68.33;99317.84;5057991;28;20056;-48
2023/06/20 06:57:12;;;;;;;9.20;3.65;;;;;;;16.81;68.02;99317.97;5061101;28;20484;-54
2023/06/20 06:59:38;;;;;;;11.98;3.22;;;;;;;16.80;68.73;99321.50;5055898;28;20056;-49
2023/06/20 07:02:05;;;;;;;10.20;3.65;;;;;;;16.79;68.98;99320.63;5054005;28;20046;-49
2023/06/20 07:04:33;;;;;;;8.68;3.22;;;;;;;16.79;68.64;99319.81;5057017;28;20056;-49
2023/06/20 07:07:00;;;;;;;9.40;3.78;;;;;;;16.80;68.18;99321.50;5053596;28;20076;-50
2023/06/20 07:09:26;;;;;;;8.05;3.35;;;;;;;16.80;69.18;99326.72;5057709;28;20044;-51
2023/06/20 07:11:53;;;;;;;7.72;4.07;;;;;;;16.80;69.07;99334.56;5056724;28;20460;-55
2023/06/20 07:14:19;;;;;;;11.05;3.53;;;;;;;16.80;69.06;99327.59;5057641;28;20140;-52
2023/06/20 07:16:46;;;;;;;7.35;3.38;;;;;;;16.81;69.07;99323.19;5054452;28;20048;-50
2023/06/20 07:19:29;;;;;;;11.68;4.43;;;;;;;16.82;68.77;99314.47;5053870;28;20110;-53
2023/06/20 07:21:56;;;;;;;11.73;4.18;;;;;;;16.81;69.00;99291.81;5055345;28;20041;-53
2023/06/20 07:24:25;;;;;;;9.32;3.67;;;;;;;16.79;69.34;99304.13;5057277;28;20570;-51
2023/06/20 07:26:51;;;;;;;7.72;3.58;;;;;;;16.77;69.45;99317.25;5060781;28;20079;-55
2023/06/20 07:29:18;;;;;;;8.43;3.33;;;;;;;16.76;69.77;99325.16;5052605;28;20118;-53
2023/06/20 07:31:46;;;;;;;7.88;3.42;;;;;;;16.76;69.38;99327.78;5055920;28;20040;-52
2023/06/20 07:34:13;;;;;;;9.43;3.40;;;;;;;16.78;69.82;99320.69;5059874;28;20037;-51
2023/06/20 07:36:40;;;;;;;8.45;3.28;;;;;;;16.77;69.45;99332.06;5054375;28;20084;-52
2023/06/20 07:39:06;;;;;;;12.27;3.53;;;;;;;16.78;69.50;99339.00;5054974;28;20044;-53
2023/06/20 07:41:33;;;;;;;13.90;3.60;;;;;;;16.76;70.29;99335.63;5056480;28;20045;-57
2023/06/20 07:44:00;;;;;;;15.57;4.65;;;;;;;16.72;69.97;99287.81;5056511;28;20083;-53
2023/06/20 07:46:26;;;;;;;16.02;5.30;;;;;;;16.68;71.07;99276.63;5060856;28;20450;-49
2023/06/20 07:48:53;;;;;;;32.97;13.93;;;;;;;16.65;71.08;99278.53;5048979;28;20147;-51
2023/06/20 07:51:20;;;;;;;21.67;8.93;;;;;;;16.63;71.18;99299.50;5052967;28;20087;-52
2023/06/20 07:53:47;;;;;;;12.68;4.95;;;;;;;16.61;71.08;99301.31;5066403;28;20048;-51
2023/06/20 07:56:14;;;;;;;18.77;6.60;;;;;;;16.60;71.76;99310.06;5064361;28;20048;-52
2023/06/20 07:58:41;;;;;;;27.60;11.57;;;;;;;16.59;72.10;99300.53;5061955;28;20045;-50
2023/06/20 08:01:08;;;;;;;27.95;11.93;;;;;;;16.62;71.63;99276.88;5063175;28;20099;-49
2023/06/20 08:03:34;;;;;;;15.50;5.57;;;;;;;16.62;72.73;99263.78;5061007;28;20052;-48
2023/06/20 08:06:03;;;;;;;11.10;5.43;;;;;;;16.67;72.16;99271.47;5054796;28;20098;-50
2023/06/20 08:08:29;;;;;;;15.93;6.25;;;;;;;16.70;71.96;99280.06;5078752;28;20515;-46
2023/06/20 08:10:56;;;;;;;14.25;7.97;;;;;;;16.75;72.14;99266.75;5064097;28;20682;-49
2023/06/20 08:13:25;;;;;;;19.23;8.43;;;;;;;16.75;72.45;99272.00;5060651;28;20058;-48
2023/06/20 08:15:51;;;;;;;28.27;13.38;;;;;;;16.78;72.49;99268.41;5058569;28;20131;-50
2023/06/20 08:18:18;;;;;;;17.15;9.60;;;;;;;16.81;72.08;99263.91;5065126;28;20044;-47
2023/06/20 08:20:47;;;;;;;15.52;8.70;;;;;;;16.86;72.50;99258.50;5059117;28;20059;-48
2023/06/20 08:23:21;;;;;;;28.65;17.00;;;;;;;16.90;72.45;99265.31;5066441;28;20455;-46
2023/06/20 08:25:48;;;;;;;26.17;17.40;;;;;;;16.96;72.42;99258.97;5060347;28;20047;-47
2023/06/20 08:28:15;;;;;;;16.63;8.80;;;;;;;17.00;72.86;99251.81;5063383;28;20044;-44
2023/06/20 08:30:41;;;;;;;11.63;5.95;;;;;;;17.05;72.45;99242.00;5057076;28;20056;-49
2023/06/20 08:33:08;;;;;;;8.93;4.72;;;;;;;17.13;72.49;99239.09;5059123;28;20135;-48
2023/06/20 08:35:34;;;;;;;14.43;5.60;;;;;;;17.21;73.04;99232.63;5065535;28;20543;-48
2023/06/20 08:38:01;;;;;;;13.02;6.95;;;;;;;17.28;72.96;99221.88;5066672;28;20052;-47
2023/06/20 08:40:29;;;;;;;14.65;7.55;;;;;;;17.33;73.04;99214.69;5064291;28;20044;-47
2023/06/20 08:42:56;;;;;;;24.90;15.20;;;;;;;17.44;73.38;99224.69;5061761;28;20475;-46
2023/06/20 08:45:23;;;;;;;35.47;22.30;;;;;;;17.53;73.13;99210.34;5059880;28;20538;-47
2023/06/20 08:47:50;;;;;;;21.20;12.15;;;;;;;17.60;72.99;99211.75;5055979;28;20502;-51
2023/06/20 08:50:16;;;;;;;11.93;6.72;;;;;;;17.64;73.13;99218.56;5059210;28;20496;-46
2023/06/20 08:52:47;;;;;;;9.98;5.07;;;;;;;17.69;72.82;99210.47;5059726;28;20495;-52
2023/06/20 08:55:15;;;;;;;8.93;4.63;;;;;;;17.73;72.94;99207.66;5035220;28;20143;-49
2023/06/20 08:57:45;;;;;;;10.32;5.22;;;;;;;17.84;72.98;99214.16;5061251;28;20075;-48
2023/06/20 09:00:21;;;;;;;9.77;5.70;;;;;;;17.88;72.11;99212.25;5056193;28;20723;-48
2023/06/20 09:02:49;;;;;;;10.25;4.93;;;;;;;17.94;72.65;99198.88;5059690;28;20064;-49
2023/06/20 09:05:16;;;;;;;11.85;5.70;;;;;;;17.96;72.66;99197.88;5059809;28;20049;-53
2023/06/20 09:07:44;;;;;;;13.20;5.70;;;;;;;18.02;71.97;99195.88;5058472;28;20067;-49
2023/06/20 09:10:17;;;;;;;11.40;5.93;;;;;;;18.04;72.24;99194.03;5059296;28;20048;-50
2023/06/20 09:15:25;;;;;;;13.38;7.40;;;;;;;18.04;72.88;99197.50;5034215;28;20404;-46
2023/06/20 09:20:30;;;;;;;15.07;8.50;;;;;;;18.29;72.93;99192.88;5001448;27;20976;-48
2023/06/20 09:22:58;;;;;;;15.13;7.35;;;;;;;18.01;73.59;99191.56;5015979;28;20725;-50
2023/06/20 09:25:28;;;;;;;13.07;6.82;;;;;;;17.96;73.33;99178.66;4974312;28;20720;-50
2023/06/20 09:27:55;;;;;;;15.25;7.07;;;;;;;17.95;73.83;99188.31;4983774;28;20043;-51
2023/06/20 09:30:22;;;;;;;14.40;7.38;;;;;;;17.96;73.42;99187.38;4991884;28;20038;-49
2023/06/20 09:32:52;;;;;;;15.75;7.57;;;;;;;18.02;74.01;99185.38;4999627;28;20077;-50
2023/06/20 09:35:20;;;;;;;16.02;7.78;;;;;;;18.11;73.41;99191.06;4982601;28;20047;-50
2023/06/20 09:37:48;;;;;;;15.00;7.88;;;;;;;18.18;73.92;99185.53;4979969;28;20043;-48
2023/06/20 09:40:16;;;;;;;18.73;8.20;;;;;;;18.28;73.46;99191.19;4976745;28;20121;-48
2023/06/20 09:42:46;;;;;;;20.58;10.07;;;;;;;18.22;74.17;99182.72;4988682;28;20048;-48
2023/06/20 09:45:16;;;;;;;17.48;8.68;;;;;;;18.23;74.98;99189.66;4987792;28;20116;-49
2023/06/20 09:47:44;;;;;;;21.33;9.95;;;;;;;18.21;74.94;99185.41;4980472;28;20054;-45
2023/06/20 09:50:16;;;;;;;20.50;10.25;;;;;;;18.22;75.33;99182.72;5025353;28;20062;-46
2023/06/20 09:52:46;;;;;;;26.08;10.43;;;;;;;18.32;75.58;99182.25;4984380;28;20059;-46
2023/06/20 09:55:15;;;;;;;20.10;9.57;;;;;;;18.36;74.89;99178.56;4984160;28;20595;-47
2023/06/20 09:57:49;;;;;;;22.42;10.10;;;;;;;18.44;75.35;99181.63;4992205;28;20078;-53
2023/06/20 10:00:16;;;;;;;25.38;11.10;;;;;;;18.45;75.68;99180.75;5004067;28;20038;-47
2023/06/20 10:02:45;;;;;;;22.63;11.10;;;;;;;18.52;75.19;99183.03;4977333;28;20406;-50
2023/06/20 10:05:15;;;;;;;24.15;10.80;;;;;;;18.56;75.83;99184.56;5004304;28;20088;-46
2023/06/20 10:07:43;;;;;;;28.63;10.70;;;;;;;18.66;75.23;99184.97;4982720;28;20055;-48
2023/06/20 10:10:11;;;;;;;26.52;12.07;;;;;;;18.77;75.50;99181.81;5021792;28;20047;-52
2023/06/20 10:12:40;;;;;;;24.95;11.77;;;;;;;18.86;75.78;99171.72;4979722;28;20053;-52
2023/06/20 10:15:09;;;;;;;26.88;12.15;;;;;;;18.94;76.35;99179.16;5020651;28;20137;-48
2023/06/20 10:17:41;;;;;;;24.55;11.60;;;;;;;19.04;76.51;99176.09;4981621;28;20062;-48
2023/06/20 10:20:23;;;;;;;29.52;11.55;;;;;;;19.21;76.29;99178.69;4977877;28;20130;-46
2023/06/20 10:22:50;;;;;;;26.60;10.75;;;;;;;19.33;75.84;99173.72;4979765;28;20251;-49
2023/06/20 10:25:18;;;;;;;26.15;11.35;;;;;;;19.45;76.02;99170.44;4982538;28;20069;-50
2023/06/20 10:28:02;;;;;;;26.08;10.70;;;;;;;19.51;75.60;99177.97;4985977;28;20462;-47
2023/06/20 10:41:28;;;;;;;24.00;10.85;;;;;;;19.93;74.93;99166.13;5020633;27;20394;-53
2023/06/20 10:43:58;;;;;;;23.75;11.15;;;;;;;20.04;75.08;99167.22;5000111;28;20050;-49
2023/06/20 10:49:17;;;;;;;24.48;10.88;;;;;;;20.34;75.23;99162.09;5062656;27;20385;-49
2023/06/20 10:54:21;;;;;;;21.63;10.77;;;;;;;20.72;74.59;99163.41;5050499;28;20420;-45
2023/06/20 10:56:48;;;;;;;21.88;10.15;;;;;;;20.89;74.33;99159.81;5014315;28;20132;-46
2023/06/20 10:59:17;;;;;;;20.42;9.95;;;;;;;21.03;74.28;99162.47;5023056;28;20564;-48
2023/06/20 11:01:44;;;;;;;22.77;10.45;;;;;;;21.15;74.09;99154.75;5013302;28;20042;-46
2023/06/20 11:04:13;;;;;;;20.58;9.95;;;;;;;21.21;74.22;99148.28;5018617;28;20058;-47
2023/06/20 11:06:40;;;;;;;18.73;9.15;;;;;;;21.24;74.02;99148.91;5016664;28;20045;-46
2023/06/20 11:09:23;;;;;;;21.10;10.15;;;;;;;21.23;73.60;99147.22;5023657;28;20072;-48
2023/06/20 11:11:50;;;;;;;18.08;9.48;;;;;;;21.24;73.22;99138.38;5018452;28;20053;-50
2023/06/20 11:14:20;;;;;;;18.38;10.07;;;;;;;21.25;73.68;99140.09;5014256;28;20054;-49
2023/06/20 11:16:48;;;;;;;22.75;10.57;;;;;;;21.25;73.40;99145.38;5013238;28;20042;-46
2023/06/20 11:19:20;;;;;;;17.98;9.18;;;;;;;21.24;73.56;99138.38;5019759;28;20049;-45
2023/06/20 11:21:50;;;;;;;17.05;9.07;;;;;;;21.23;73.23;99136.69;5015827;28;20052;-45
2023/06/20 11:24:20;;;;;;;18.77;8.82;;;;;;;21.24;73.31;99143.66;5012367;28;20449;-48
2023/06/20 11:26:47;;;;;;;19.20;9.13;;;;;;;21.25;73.43;99140.09;5009217;28;20046;-47
2023/06/20 11:29:14;;;;;;;17.98;8.82;;;;;;;21.30;73.34;99137.16;5016487;28;20056;-48
2023/06/20 11:31:40;;;;;;;19.15;9.65;;;;;;;21.38;73.33;99134.06;5013784;28;20077;-47
2023/06/20 11:34:09;;;;;;;19.58;9.57;;;;;;;21.47;73.47;99141.38;5016595;28;20994;-46
2023/06/20 11:36:38;;;;;;;;;;;;;;;21.43;74.10;99148.63;5008083;28;20058;-48
2023/06/20 11:41:44;;;;;;;20.17;10.18;;;;;;;21.61;72.58;99144.94;5097970;27;20411;-49
2023/06/20 11:44:27;;;;;;;22.92;11.18;;;;;;;21.64;72.75;99142.09;5027742;27;20049;-50
2023/06/20 11:46:57;;;;;;;20.17;11.02;;;;;;;21.75;73.09;99147.53;5016801;28;20050;-52
2023/06/20 11:49:33;;;;;;;23.63;11.45;;;;;;;21.81;72.64;99144.53;5011800;28;20107;-47
2023/06/20 11:52:00;;;;;;;19.45;10.18;;;;;;;21.87;72.21;99145.06;5029087;28;20449;-50
2023/06/20 11:54:27;;;;;;;18.08;10.10;;;;;;;21.86;72.32;99144.25;5017197;28;20080;-48
2023/06/20 11:56:54;;;;;;;19.60;9.77;;;;;;;21.90;72.09;99152.78;5011483;28;20066;-51
2023/06/20 11:59:23;;;;;;;20.20;10.45;;;;;;;21.93;71.85;99160.50;5022963;28;20101;-46
2023/06/20 12:01:50;;;;;;;20.75;10.15;;;;;;;22.00;72.74;99156.53;5008179;28;20050;-52